createdAt,value
2022-10-13T00:00:20.028Z,41.91
2022-10-13T00:01:20.025Z,43.37
2022-10-13T00:02:20.443Z,58.04
2022-10-13T00:03:19.975Z,44.70
2022-10-13T00:04:19.973Z,43.66
2022-10-13T00:05:20.002Z,50.02
2022-10-13T00:06:19.951Z,55.34
2022-10-13T00:07:19.956Z,59.74
2022-10-13T00:08:19.907Z,50.83
2022-10-13T00:09:19.935Z,41.96
2022-10-13T00:10:19.940Z,52.03
2022-10-13T00:11:19.899Z,58.14
2022-10-13T00:12:20.266Z,47.12
2022-10-13T00:13:19.866Z,45.24
2022-10-13T00:14:19.866Z,50.41
2022-10-13T00:15:20.851Z,62.35
2022-10-13T00:16:19.837Z,43.25
2022-10-13T00:17:19.842Z,42.79
2022-10-13T00:18:19.810Z,47.30
2022-10-13T00:19:19.822Z,54.80
2022-10-13T00:20:19.860Z,44.26
2022-10-13T00:21:19.804Z,42.41
2022-10-13T00:22:21.153Z,50.72
2022-10-13T00:23:19.769Z,52.38
2022-10-13T00:24:19.758Z,56.41
2022-10-13T00:25:19.792Z,46.47
2022-10-13T00:26:19.735Z,51.83
2022-10-13T00:27:19.746Z,62.26
2022-10-13T00:28:19.752Z,53.92
2022-10-13T00:29:19.702Z,61.39
2022-10-13T00:30:19.755Z,47.52
2022-10-13T00:31:19.742Z,43.65
2022-10-13T00:32:20.053Z,63.04
2022-10-13T00:33:19.669Z,48.81
2022-10-13T00:34:19.753Z,49.14
2022-10-13T00:35:19.669Z,41.88
2022-10-13T00:36:19.685Z,47.40
2022-10-13T00:37:19.624Z,46.29
2022-10-13T00:38:19.622Z,42.18
2022-10-13T00:39:19.604Z,56.49
2022-10-13T00:40:19.610Z,64.10
2022-10-13T00:41:19.599Z,42.80
2022-10-13T00:42:19.944Z,42.08
2022-10-13T00:43:19.581Z,43.81
2022-10-13T00:44:19.564Z,61.22
2022-10-13T00:45:19.553Z,44.06
2022-10-13T00:46:19.558Z,55.65
2022-10-13T00:47:19.547Z,49.04
2022-10-13T00:48:19.541Z,56.21
2022-10-13T00:49:19.543Z,55.39
2022-10-13T00:50:19.514Z,47.14
2022-10-13T00:51:19.514Z,45.85
2022-10-13T00:52:19.802Z,56.96
2022-10-13T00:53:19.470Z,53.57
2022-10-13T00:54:19.602Z,49.48
2022-10-13T00:55:19.461Z,46.86
2022-10-13T00:56:19.449Z,51.60
2022-10-13T00:57:19.466Z,49.09
2022-10-13T00:58:19.433Z,43.28
2022-10-13T00:59:19.414Z,44.65
2022-10-13T01:00:19.417Z,41.44
2022-10-13T01:01:19.377Z,45.20
2022-10-13T01:02:19.673Z,48.83
2022-10-13T01:03:19.403Z,43.89
2022-10-13T01:04:19.374Z,50.94
2022-10-13T01:05:19.375Z,48.08
2022-10-13T01:06:23.436Z,61.26
2022-10-13T01:07:20.356Z,45.01
2022-10-13T01:08:19.335Z,43.68
2022-10-13T01:09:19.343Z,49.00
2022-10-13T01:10:19.341Z,45.86
2022-10-13T01:11:19.289Z,59.64
2022-10-13T01:12:19.600Z,49.96
2022-10-13T01:13:19.297Z,55.81
2022-10-13T01:14:19.271Z,50.60
2022-10-13T01:15:19.262Z,44.22
2022-10-13T01:16:19.258Z,55.70
2022-10-13T01:17:19.233Z,55.52
2022-10-13T01:18:19.222Z,51.60
2022-10-13T01:19:19.245Z,45.64
2022-10-13T01:20:19.241Z,51.35
2022-10-13T01:21:19.219Z,45.52
2022-10-13T01:22:19.589Z,46.47
2022-10-13T01:23:19.186Z,46.54
2022-10-13T01:24:19.214Z,55.02
2022-10-13T01:25:19.181Z,53.75
2022-10-13T01:26:19.165Z,43.16
2022-10-13T01:27:19.213Z,47.12
2022-10-13T01:28:19.163Z,49.47
2022-10-13T01:29:19.111Z,48.89
2022-10-13T01:30:19.102Z,46.38
2022-10-13T01:31:19.136Z,50.84
2022-10-13T01:32:19.405Z,50.59
2022-10-13T01:33:19.079Z,60.98
2022-10-13T01:34:19.074Z,47.21
2022-10-13T01:35:19.104Z,52.09
2022-10-13T01:36:19.058Z,47.45
2022-10-13T01:37:19.033Z,48.00
2022-10-13T01:38:19.058Z,51.97
2022-10-13T01:39:19.016Z,50.39
2022-10-13T01:40:19.035Z,60.89
2022-10-13T01:41:19.021Z,48.89
2022-10-13T01:42:19.305Z,46.67
2022-10-13T01:43:18.982Z,47.03
2022-10-13T01:44:19.011Z,50.04
2022-10-13T01:45:18.962Z,49.81
2022-10-13T01:46:19.987Z,47.02
2022-10-13T01:47:18.947Z,49.36
2022-10-13T01:48:18.933Z,58.97
2022-10-13T01:49:18.926Z,52.70
2022-10-13T01:50:18.954Z,56.02
2022-10-13T01:51:18.909Z,50.76
2022-10-13T01:52:19.275Z,60.01
2022-10-13T01:53:18.901Z,43.94
2022-10-13T01:54:18.889Z,52.60
2022-10-13T01:55:18.874Z,49.17
2022-10-13T01:56:18.858Z,49.62
2022-10-13T01:57:18.842Z,45.10
2022-10-13T01:58:18.834Z,44.66
2022-10-13T01:59:18.840Z,45.75
2022-10-13T02:00:18.813Z,48.53
2022-10-13T02:01:18.802Z,42.88
2022-10-13T02:02:19.272Z,48.24
2022-10-13T02:03:18.800Z,58.65
2022-10-13T02:04:18.823Z,46.70
2022-10-13T02:05:18.788Z,55.01
2022-10-13T02:06:18.770Z,42.59
2022-10-13T02:07:18.763Z,42.77
2022-10-13T02:08:18.757Z,46.96
2022-10-13T02:09:18.741Z,61.01
2022-10-13T02:10:18.727Z,49.38
2022-10-13T02:11:18.721Z,46.73
2022-10-13T02:12:18.936Z,52.92
2022-10-13T02:13:18.711Z,48.66
2022-10-13T02:14:18.682Z,61.95
2022-10-13T02:15:18.683Z,48.35
2022-10-13T02:16:18.653Z,49.17
2022-10-13T02:17:18.678Z,63.99
2022-10-13T02:18:18.671Z,44.91
2022-10-13T02:19:18.658Z,48.97
2022-10-13T02:20:18.628Z,51.47
2022-10-13T02:21:18.628Z,47.96
2022-10-13T02:22:18.924Z,49.53
2022-10-13T02:23:18.625Z,51.79
2022-10-13T02:24:18.591Z,52.14
2022-10-13T02:25:18.596Z,47.56
2022-10-13T02:26:18.595Z,47.75
2022-10-13T02:27:18.632Z,52.75
2022-10-13T02:28:18.600Z,49.09
2022-10-13T02:29:18.533Z,46.44
2022-10-13T02:30:18.513Z,45.14
2022-10-13T02:31:19.533Z,55.73
2022-10-13T02:32:18.812Z,48.68
2022-10-13T02:33:18.549Z,47.28
2022-10-13T02:34:18.494Z,51.43
2022-10-13T02:35:18.497Z,51.72
2022-10-13T02:36:28.383Z,45.01
2022-10-13T02:37:18.445Z,49.55
2022-10-13T02:38:18.455Z,51.00
2022-10-13T02:39:18.450Z,55.44
2022-10-13T02:40:18.451Z,62.06
2022-10-13T02:41:18.416Z,51.95
2022-10-13T02:42:19.073Z,48.83
2022-10-13T02:43:18.391Z,47.26
2022-10-13T02:44:18.388Z,51.30
2022-10-13T02:45:18.400Z,54.72
2022-10-13T02:46:18.367Z,48.20
2022-10-13T02:47:18.367Z,52.43
2022-10-13T02:48:18.353Z,55.03
2022-10-13T02:49:18.355Z,56.41
2022-10-13T02:50:18.354Z,50.47
2022-10-13T02:51:18.313Z,53.01
2022-10-13T02:52:18.638Z,50.79
2022-10-13T02:53:18.324Z,65.83
2022-10-13T02:54:18.283Z,53.39
2022-10-13T02:55:18.274Z,51.00
2022-10-13T02:56:18.265Z,54.81
2022-10-13T02:57:18.255Z,59.45
2022-10-13T02:58:18.260Z,50.82
2022-10-13T02:59:18.235Z,54.77
2022-10-13T03:00:18.260Z,55.46
2022-10-13T03:01:18.223Z,53.29
2022-10-13T03:02:18.783Z,53.39
2022-10-13T03:03:18.212Z,62.21
2022-10-13T03:04:18.316Z,50.24
2022-10-13T03:05:18.191Z,50.64
2022-10-13T03:06:18.179Z,55.44
2022-10-13T03:07:18.157Z,53.74
2022-10-13T03:08:18.146Z,55.30
2022-10-13T03:09:18.151Z,57.04
2022-10-13T03:10:18.124Z,55.41
2022-10-13T03:11:18.111Z,60.47
2022-10-13T03:12:18.368Z,58.35
2022-10-13T03:13:18.095Z,56.62
2022-10-13T03:14:18.105Z,51.66
2022-10-13T03:15:18.072Z,54.27
2022-10-13T03:16:18.067Z,57.38
2022-10-13T03:17:18.064Z,62.62
2022-10-13T03:18:18.049Z,56.47
2022-10-13T03:19:18.061Z,54.72
2022-10-13T03:20:18.028Z,54.36
2022-10-13T03:21:18.019Z,54.75
2022-10-13T03:22:18.345Z,53.49
2022-10-13T03:23:18.001Z,61.80
2022-10-13T03:24:17.990Z,55.35
2022-10-13T03:25:17.986Z,62.48
2022-10-13T03:26:17.966Z,56.06
2022-10-13T03:27:17.982Z,55.51
2022-10-13T03:28:17.992Z,50.63
2022-10-13T03:29:17.945Z,54.13
2022-10-13T03:30:17.927Z,56.10
2022-10-13T03:31:17.914Z,56.42
2022-10-13T03:32:18.283Z,53.47
2022-10-13T03:33:17.907Z,55.19
2022-10-13T03:34:17.893Z,56.70
2022-10-13T03:35:17.881Z,57.81
2022-10-13T03:36:17.872Z,54.89
2022-10-13T03:37:17.866Z,58.79
2022-10-13T03:38:17.869Z,57.80
2022-10-13T03:39:17.843Z,56.86
2022-10-13T03:40:17.828Z,54.46
2022-10-13T03:41:17.824Z,67.38
2022-10-13T03:42:18.130Z,55.90
2022-10-13T03:43:17.819Z,54.89
2022-10-13T03:44:17.789Z,51.59
2022-10-13T03:45:17.781Z,58.06
2022-10-13T03:46:17.774Z,63.17
2022-10-13T03:47:17.760Z,58.91
2022-10-13T03:48:17.755Z,51.91
2022-10-13T03:49:17.763Z,55.30
2022-10-13T03:50:17.732Z,49.83
2022-10-13T03:51:17.719Z,58.12
2022-10-13T03:52:18.155Z,53.17
2022-10-13T03:53:17.701Z,55.36
2022-10-13T03:54:17.701Z,58.13
2022-10-13T03:55:17.676Z,57.01
2022-10-13T03:56:17.674Z,54.74
2022-10-13T03:57:17.679Z,57.12
2022-10-13T03:58:17.662Z,63.80
2022-10-13T03:59:17.631Z,53.04
2022-10-13T04:00:17.630Z,60.76
2022-10-13T04:01:17.628Z,62.03
2022-10-13T04:02:17.937Z,52.13
2022-10-13T04:03:17.604Z,54.79
2022-10-13T04:04:17.599Z,56.84
2022-10-13T04:05:17.607Z,55.66
2022-10-13T04:06:17.579Z,55.82
2022-10-13T04:07:17.570Z,56.02
2022-10-13T04:08:17.549Z,54.27
2022-10-13T04:09:17.554Z,59.00
2022-10-13T04:10:17.545Z,56.41
2022-10-13T04:11:17.551Z,62.75
2022-10-13T04:12:20.868Z,55.71
2022-10-13T04:13:18.517Z,57.50
2022-10-13T04:14:17.500Z,55.59
2022-10-13T04:15:17.492Z,57.34
2022-10-13T04:16:17.506Z,61.86
2022-10-13T04:17:17.478Z,57.56
2022-10-13T04:18:17.474Z,55.89
2022-10-13T04:19:17.449Z,57.15
2022-10-13T04:20:17.440Z,55.81
2022-10-13T04:21:17.437Z,56.66
2022-10-13T04:22:17.829Z,56.43
2022-10-13T04:23:17.409Z,56.80
2022-10-13T04:24:17.409Z,56.02
2022-10-13T04:25:17.390Z,56.43
2022-10-13T04:26:17.389Z,57.97
2022-10-13T04:27:17.416Z,55.22
2022-10-13T04:28:17.417Z,58.20
2022-10-13T04:29:17.346Z,54.40
2022-10-13T04:30:17.342Z,57.70
2022-10-13T04:31:17.339Z,56.41
2022-10-13T04:32:17.703Z,58.26
2022-10-13T04:33:17.370Z,58.17
2022-10-13T04:34:17.308Z,57.20
2022-10-13T04:35:17.288Z,63.58
2022-10-13T04:36:17.288Z,58.90
2022-10-13T04:37:17.278Z,56.98
2022-10-13T04:38:17.291Z,56.57
2022-10-13T04:39:17.260Z,57.55
2022-10-13T04:40:17.264Z,56.50
2022-10-13T04:41:17.229Z,56.74
2022-10-13T04:42:17.585Z,57.95
2022-10-13T04:43:17.216Z,54.65
2022-10-13T04:44:17.201Z,57.55
2022-10-13T04:45:17.208Z,56.43
2022-10-13T04:46:17.186Z,58.14
2022-10-13T04:47:17.176Z,55.23
2022-10-13T04:48:17.157Z,56.78
2022-10-13T04:49:17.168Z,55.88
2022-10-13T04:50:18.162Z,58.31
2022-10-13T04:51:17.135Z,57.65
2022-10-13T04:52:17.321Z,57.96
2022-10-13T04:53:19.314Z,59.99
2022-10-13T04:54:18.110Z,64.36
2022-10-13T04:55:17.088Z,58.72
2022-10-13T04:56:17.109Z,56.07
2022-10-13T04:57:17.075Z,63.63
2022-10-13T04:58:17.064Z,59.91
2022-10-13T04:59:17.062Z,58.11
2022-10-13T05:00:17.050Z,64.12
2022-10-13T05:01:21.349Z,63.51
2022-10-13T05:02:18.326Z,58.38
2022-10-13T05:03:17.010Z,59.21
2022-10-13T05:04:17.011Z,58.59
2022-10-13T05:05:17.007Z,58.73
2022-10-13T05:06:17.010Z,58.17
2022-10-13T05:07:18.470Z,57.01
2022-10-13T05:08:17.976Z,57.87
2022-10-13T05:09:16.959Z,57.75
2022-10-13T05:10:16.952Z,58.00
2022-10-13T05:11:16.956Z,58.88
2022-10-13T05:12:17.086Z,59.95
2022-10-13T05:13:16.917Z,59.06
2022-10-13T05:14:16.912Z,60.94
2022-10-13T05:15:16.903Z,57.88
2022-10-13T05:16:16.889Z,58.12
2022-10-13T05:17:17.003Z,59.95
2022-10-13T05:18:16.892Z,58.62
2022-10-13T05:19:16.866Z,59.23
2022-10-13T05:20:16.858Z,59.96
2022-10-13T05:21:16.843Z,59.69
2022-10-13T05:22:17.071Z,58.71
2022-10-13T05:23:16.816Z,58.13
2022-10-13T05:24:16.806Z,57.27
2022-10-13T05:25:16.811Z,58.81
2022-10-13T05:26:16.797Z,59.23
2022-10-13T05:27:16.796Z,60.32
2022-10-13T05:28:16.890Z,60.03
2022-10-13T05:29:16.784Z,65.54
2022-10-13T05:30:16.778Z,62.81
2022-10-13T05:31:16.742Z,62.17
2022-10-13T05:32:17.002Z,60.51
2022-10-13T05:33:16.713Z,63.22
2022-10-13T05:34:16.728Z,61.56
2022-10-13T05:35:16.716Z,59.80
2022-10-13T05:36:16.691Z,60.66
2022-10-13T05:37:16.688Z,65.83
2022-10-13T05:38:16.684Z,59.26
2022-10-13T05:39:16.723Z,59.95
2022-10-13T05:40:16.643Z,60.63
2022-10-13T05:41:16.645Z,60.00
2022-10-13T05:42:16.764Z,60.00
2022-10-13T05:43:16.640Z,59.74
2022-10-13T05:44:16.629Z,62.82
2022-10-13T05:45:16.603Z,61.07
2022-10-13T05:46:16.596Z,59.72
2022-10-13T05:47:16.608Z,60.30
2022-10-13T05:48:16.577Z,60.04
2022-10-13T05:49:16.569Z,60.68
2022-10-13T05:50:16.558Z,58.96
2022-10-13T05:51:16.559Z,58.85
2022-10-13T05:52:16.784Z,60.32
2022-10-13T05:53:16.542Z,58.34
2022-10-13T05:54:16.532Z,57.30
2022-10-13T05:55:16.512Z,57.92
2022-10-13T05:56:16.528Z,59.33
2022-10-13T05:57:16.486Z,66.83
2022-10-13T05:58:16.476Z,61.96
2022-10-13T05:59:16.495Z,60.73
2022-10-13T06:00:16.489Z,61.42
2022-10-13T06:01:16.471Z,61.81
2022-10-13T06:02:16.501Z,61.30
2022-10-13T06:03:16.433Z,61.27
2022-10-13T06:04:16.422Z,66.73
2022-10-13T06:05:16.422Z,63.11
2022-10-13T06:06:16.401Z,61.28
2022-10-13T06:07:16.412Z,62.28
2022-10-13T06:08:16.380Z,62.98
2022-10-13T06:09:16.374Z,60.78
2022-10-13T06:10:16.362Z,57.99
2022-10-13T06:11:16.356Z,59.96
2022-10-13T06:12:16.391Z,61.14
2022-10-13T06:13:16.372Z,59.10
2022-10-13T06:14:16.323Z,60.88
2022-10-13T06:15:16.329Z,60.07
2022-10-13T06:16:16.305Z,61.62
2022-10-13T06:17:16.325Z,61.25
2022-10-13T06:18:16.341Z,62.16
2022-10-13T06:19:16.279Z,62.58
2022-10-13T06:20:16.263Z,59.66
2022-10-13T06:21:16.264Z,60.97
2022-10-13T06:22:16.242Z,59.58
2022-10-13T06:23:16.242Z,61.86
2022-10-13T06:24:16.245Z,60.69
2022-10-13T06:25:16.214Z,63.03
2022-10-13T06:26:16.213Z,62.95
2022-10-13T06:27:16.201Z,59.58
2022-10-13T06:28:16.261Z,62.10
2022-10-13T06:29:16.209Z,62.64
2022-10-13T06:30:16.177Z,58.87
2022-10-13T06:31:16.162Z,62.24
2022-10-13T06:32:16.163Z,62.07
2022-10-13T06:33:16.145Z,67.95
2022-10-13T06:34:16.156Z,61.90
2022-10-13T06:35:16.140Z,63.94
2022-10-13T06:36:16.123Z,66.84
2022-10-13T06:37:16.122Z,62.61
2022-10-13T06:38:16.092Z,62.07
2022-10-13T06:39:16.091Z,62.79
2022-10-13T06:40:16.109Z,61.81
2022-10-13T06:41:16.072Z,62.84
2022-10-13T06:42:16.061Z,60.89
2022-10-13T06:43:16.053Z,56.77
2022-10-13T06:44:16.033Z,65.67
2022-10-13T06:45:16.048Z,61.60
2022-10-13T06:46:16.007Z,61.89
2022-10-13T06:47:16.035Z,61.58
2022-10-13T06:48:15.997Z,61.87
2022-10-13T06:49:15.989Z,62.52
2022-10-13T06:50:15.983Z,63.25
2022-10-13T06:51:16.001Z,60.55
2022-10-13T06:52:15.979Z,61.81
2022-10-13T06:53:15.947Z,63.48
2022-10-13T06:54:15.948Z,58.99
2022-10-13T06:55:15.927Z,61.67
2022-10-13T06:56:15.910Z,64.74
2022-10-13T06:57:15.905Z,64.21
2022-10-13T06:58:15.901Z,61.25
2022-10-13T06:59:15.889Z,61.40
2022-10-13T07:00:15.907Z,64.51
2022-10-13T07:01:15.859Z,61.46
2022-10-13T07:02:15.848Z,61.70
2022-10-13T07:03:15.854Z,61.31
2022-10-13T07:04:15.824Z,60.96
2022-10-13T07:05:15.843Z,61.13
2022-10-13T07:06:15.829Z,60.51
2022-10-13T07:07:15.805Z,57.06
2022-10-13T07:08:15.798Z,61.86
2022-10-13T07:09:15.782Z,62.92
2022-10-13T07:10:15.794Z,62.75
2022-10-13T07:11:16.621Z,61.42
2022-10-13T07:12:15.764Z,61.71
2022-10-13T07:13:15.823Z,62.51
2022-10-13T07:14:15.741Z,62.29
2022-10-13T07:15:15.728Z,63.20
2022-10-13T07:16:15.757Z,60.50
2022-10-13T07:17:15.708Z,61.44
2022-10-13T07:18:15.692Z,61.66
2022-10-13T07:19:15.705Z,56.66
2022-10-13T07:20:15.699Z,60.23
2022-10-13T07:21:15.685Z,61.42
2022-10-13T07:22:15.662Z,61.22
2022-10-13T07:23:15.644Z,61.11
2022-10-13T07:24:15.644Z,61.46
2022-10-13T07:25:15.656Z,61.89
2022-10-13T07:26:15.631Z,62.18
2022-10-13T07:27:15.630Z,62.82
2022-10-13T07:28:15.644Z,61.45
2022-10-13T07:29:15.640Z,61.65
2022-10-13T07:30:15.583Z,60.68
2022-10-13T07:31:15.579Z,61.93
2022-10-13T07:32:15.564Z,61.55
2022-10-13T07:33:15.557Z,60.16
2022-10-13T07:34:15.582Z,62.79
2022-10-13T07:35:15.540Z,67.06
2022-10-13T07:36:15.536Z,61.64
2022-10-13T07:37:15.534Z,62.64
2022-10-13T07:38:15.534Z,61.97
2022-10-13T07:39:15.502Z,57.47
2022-10-13T07:40:15.500Z,61.07
2022-10-13T07:41:15.484Z,60.66
2022-10-13T07:42:15.459Z,61.94
2022-10-13T07:43:16.465Z,60.53
2022-10-13T07:44:15.456Z,61.24
2022-10-13T07:45:15.440Z,61.17
2022-10-13T07:46:15.430Z,62.06
2022-10-13T07:47:15.445Z,61.90
2022-10-13T07:48:15.444Z,58.77
2022-10-13T07:49:16.380Z,57.58
2022-10-13T07:50:15.391Z,57.13
2022-10-13T07:51:15.377Z,61.03
2022-10-13T07:52:15.420Z,61.15
2022-10-13T07:53:15.383Z,60.80
2022-10-13T07:54:15.355Z,62.28
2022-10-13T07:55:15.342Z,63.08
2022-10-13T07:56:15.360Z,67.18
2022-10-13T07:57:15.325Z,62.84
2022-10-13T07:58:15.330Z,60.85
2022-10-13T07:59:15.302Z,61.25
2022-10-13T08:00:15.295Z,59.81
2022-10-13T08:01:15.337Z,61.76
2022-10-13T08:02:15.291Z,63.17
2022-10-13T08:03:15.289Z,60.75
2022-10-13T08:04:15.261Z,60.76
2022-10-13T08:05:15.245Z,57.43
2022-10-13T08:06:15.990Z,63.65
2022-10-13T08:07:15.242Z,63.52
2022-10-13T08:08:15.247Z,69.58
2022-10-13T08:09:15.223Z,62.87
2022-10-13T08:10:15.216Z,62.09
2022-10-13T08:11:16.731Z,60.82
2022-10-13T08:12:15.178Z,62.54
2022-10-13T08:13:15.181Z,62.73
2022-10-13T08:14:15.174Z,62.12
2022-10-13T08:15:15.155Z,61.69
2022-10-13T08:16:15.178Z,61.85
2022-10-13T08:17:15.123Z,62.58
2022-10-13T08:18:15.130Z,56.97
2022-10-13T08:19:15.112Z,63.16
2022-10-13T08:20:15.089Z,62.76
2022-10-13T08:22:16.093Z,61.86
2022-10-13T08:23:15.071Z,63.13
2022-10-13T08:24:15.053Z,65.68
2022-10-13T08:25:15.074Z,62.70
2022-10-13T08:26:15.040Z,63.79
2022-10-13T08:27:15.039Z,60.15
2022-10-13T08:28:15.061Z,59.63
2022-10-13T08:29:23.338Z,59.61
2022-10-13T08:30:17.128Z,59.84
2022-10-13T08:31:15.160Z,60.72
2022-10-13T08:32:14.991Z,62.97
2022-10-13T08:33:14.965Z,59.45
2022-10-13T08:34:14.971Z,61.18
2022-10-13T08:35:14.971Z,60.00
2022-10-13T08:36:14.978Z,61.01
2022-10-13T08:37:46.825Z,61.07
2022-10-13T08:38:14.933Z,62.36
2022-10-13T08:39:14.912Z,60.37
2022-10-13T08:40:14.903Z,56.85
2022-10-13T08:41:14.919Z,57.06
2022-10-13T08:42:14.891Z,60.56
2022-10-13T08:43:14.877Z,58.48
2022-10-13T08:44:59.224Z,57.78
2022-10-13T08:45:39.853Z,66.34
2022-10-13T08:46:16.857Z,58.07
2022-10-13T08:47:14.844Z,59.70
2022-10-13T08:48:14.830Z,58.57
2022-10-13T08:49:14.845Z,55.71
2022-10-13T08:50:14.906Z,56.34
2022-10-13T08:51:14.802Z,57.51
2022-10-13T08:52:14.819Z,58.34
2022-10-13T08:53:14.784Z,63.70
2022-10-13T08:54:14.769Z,61.87
2022-10-13T08:55:14.790Z,58.56
2022-10-13T08:56:14.755Z,57.03
2022-10-13T08:57:14.753Z,58.10
2022-10-13T08:58:14.753Z,63.14
2022-10-13T08:59:14.728Z,58.35
2022-10-13T09:00:14.747Z,56.95
2022-10-13T09:01:14.830Z,67.42
2022-10-13T09:02:14.691Z,56.93
2022-10-13T09:03:14.673Z,62.35
2022-10-13T09:04:14.677Z,57.15
2022-10-13T09:05:14.673Z,57.22
2022-10-13T09:06:14.695Z,65.11
2022-10-13T09:07:14.658Z,58.97
2022-10-13T09:08:14.635Z,57.10
2022-10-13T09:09:14.621Z,58.97
2022-10-13T09:10:14.614Z,61.27
2022-10-13T09:11:14.625Z,60.71
2022-10-13T09:12:14.610Z,57.64
2022-10-13T09:13:14.599Z,53.07
2022-10-13T09:14:14.602Z,56.23
2022-10-13T09:15:14.591Z,57.83
2022-10-13T09:16:14.569Z,58.31
2022-10-13T09:18:14.547Z,57.70
2022-10-13T09:19:14.598Z,56.76
2022-10-13T09:20:14.509Z,58.66
2022-10-13T09:21:14.511Z,57.53
2022-10-13T09:22:14.494Z,59.77
2022-10-13T09:23:14.487Z,59.09
2022-10-13T09:24:14.521Z,58.54
2022-10-13T09:25:14.510Z,59.19
2022-10-13T09:26:14.500Z,59.30
2022-10-13T09:27:15.464Z,57.87
2022-10-13T09:28:14.474Z,57.98
2022-10-13T09:29:14.443Z,56.24
2022-10-13T09:30:14.417Z,57.18
2022-10-13T09:31:14.415Z,56.76
2022-10-13T09:32:14.426Z,64.49
2022-10-13T09:33:14.390Z,56.41
2022-10-13T09:34:14.389Z,57.75
2022-10-13T09:35:14.384Z,64.23
2022-10-13T09:36:14.394Z,59.93
2022-10-13T09:37:14.355Z,61.31
2022-10-13T09:38:14.358Z,60.20
2022-10-13T09:39:14.336Z,57.61
2022-10-13T09:40:14.327Z,57.39
2022-10-13T09:41:14.318Z,56.69
2022-10-13T09:42:14.312Z,56.29
2022-10-13T09:43:14.317Z,58.23
2022-10-13T09:44:14.287Z,56.88
2022-10-13T09:45:14.321Z,64.83
2022-10-13T09:46:14.304Z,58.22
2022-10-13T09:47:14.303Z,58.24
2022-10-13T09:48:14.259Z,58.02
2022-10-13T09:49:14.243Z,58.37
2022-10-13T09:50:14.290Z,56.94
2022-10-13T09:51:14.232Z,59.34
2022-10-13T09:52:14.228Z,63.77
2022-10-13T09:53:14.216Z,58.23
2022-10-13T09:54:14.245Z,57.16
2022-10-13T09:55:14.179Z,62.80
2022-10-13T09:56:14.228Z,59.49
2022-10-13T09:57:14.189Z,59.25
2022-10-13T09:58:14.154Z,56.18
2022-10-13T09:59:14.156Z,62.34
2022-10-13T10:00:14.226Z,58.57
2022-10-13T10:01:14.129Z,56.45
2022-10-13T10:02:18.020Z,55.30
2022-10-13T10:03:15.147Z,57.92
2022-10-13T10:04:14.141Z,59.00
2022-10-13T10:05:14.093Z,60.96
2022-10-13T10:06:14.085Z,59.65
2022-10-13T10:07:14.066Z,61.37
2022-10-13T10:08:14.097Z,66.84
2022-10-13T10:09:14.059Z,62.64
2022-10-13T10:10:14.115Z,61.70
2022-10-13T10:11:14.038Z,62.03
2022-10-13T10:12:14.062Z,61.23
2022-10-13T10:13:14.025Z,61.49
2022-10-13T10:14:13.991Z,60.70
2022-10-13T10:15:13.995Z,60.57
2022-10-13T10:16:13.985Z,58.06
2022-10-13T10:17:13.991Z,59.32
2022-10-13T10:18:13.944Z,60.37
2022-10-13T10:19:13.945Z,61.24
2022-10-13T10:20:13.984Z,60.47
2022-10-13T10:21:13.959Z,59.99
2022-10-13T10:22:13.915Z,63.28
2022-10-13T10:23:13.905Z,61.20
2022-10-13T10:24:13.941Z,58.13
2022-10-13T10:25:13.881Z,60.79
2022-10-13T10:26:13.870Z,60.88
2022-10-13T10:27:13.913Z,61.06
2022-10-13T10:28:13.954Z,60.63
2022-10-13T10:29:13.838Z,60.36
2022-10-13T10:30:13.849Z,58.20
2022-10-13T10:31:13.826Z,57.04
2022-10-13T10:32:13.840Z,64.61
2022-10-13T10:33:13.797Z,61.03
2022-10-13T10:34:15.471Z,60.99
2022-10-13T10:35:13.804Z,60.56
2022-10-13T10:36:13.788Z,57.70
2022-10-13T10:37:13.793Z,65.54
2022-10-13T10:38:13.784Z,59.72
2022-10-13T10:39:13.772Z,60.60
2022-10-13T10:40:13.753Z,61.92
2022-10-13T10:41:13.720Z,61.33
2022-10-13T10:42:13.825Z,57.06
2022-10-13T10:43:13.738Z,56.15
2022-10-13T10:44:13.749Z,58.84
2022-10-13T10:45:13.726Z,59.25
2022-10-13T10:46:13.694Z,57.54
2022-10-13T10:47:13.675Z,59.54
2022-10-13T10:48:13.663Z,56.47
2022-10-13T10:49:13.659Z,64.18
2022-10-13T10:50:13.638Z,61.15
2022-10-13T10:51:13.643Z,60.25
2022-10-13T10:52:13.634Z,59.97
2022-10-13T10:53:13.621Z,66.84
2022-10-13T10:54:13.628Z,61.55
2022-10-13T10:55:13.608Z,60.62
2022-10-13T10:56:13.576Z,60.42
2022-10-13T10:57:13.568Z,59.48
2022-10-13T10:58:13.559Z,60.04
2022-10-13T10:59:13.578Z,60.16
2022-10-13T11:00:13.613Z,59.85
2022-10-13T11:01:13.563Z,64.66
2022-10-13T11:02:13.522Z,62.81
2022-10-13T11:03:13.510Z,61.56
2022-10-13T11:04:13.504Z,65.06
2022-10-13T11:05:13.515Z,60.66
2022-10-13T11:06:13.484Z,59.60
2022-10-13T11:07:13.543Z,58.62
2022-10-13T11:08:13.463Z,58.79
2022-10-13T11:09:13.455Z,59.86
2022-10-13T11:10:13.462Z,57.46
2022-10-13T11:11:13.453Z,58.36
2022-10-13T11:12:13.450Z,56.06
2022-10-13T11:13:13.423Z,58.49
2022-10-13T11:14:13.421Z,60.13
2022-10-13T11:15:13.384Z,57.52
2022-10-13T11:16:13.399Z,56.58
2022-10-13T11:17:13.400Z,55.89
2022-10-13T11:18:13.435Z,56.41
2022-10-13T11:19:13.369Z,57.65
2022-10-13T11:20:13.353Z,58.09
2022-10-13T11:21:13.346Z,57.20
2022-10-13T11:22:13.324Z,57.14
2022-10-13T11:23:13.322Z,58.14
2022-10-13T11:24:13.291Z,58.07
2022-10-13T11:25:13.284Z,56.38
2022-10-13T11:26:13.283Z,61.84
2022-10-13T11:27:13.291Z,59.13
2022-10-13T11:28:13.302Z,57.94
2022-10-13T11:29:13.242Z,57.03
2022-10-13T11:30:13.249Z,60.22
2022-10-13T11:31:13.247Z,56.94
2022-10-13T11:32:13.232Z,59.18
2022-10-13T11:33:13.211Z,60.42
2022-10-13T11:34:13.192Z,56.81
2022-10-13T11:35:13.193Z,57.80
2022-10-13T11:36:13.181Z,56.18
2022-10-13T11:37:13.171Z,57.47
2022-10-13T11:38:17.595Z,62.08
2022-10-13T11:39:14.167Z,58.78
2022-10-13T11:40:13.146Z,59.54
2022-10-13T11:41:13.140Z,57.51
2022-10-13T11:42:13.117Z,59.19
2022-10-13T11:43:14.121Z,61.30
2022-10-13T11:44:13.100Z,58.35
2022-10-13T11:45:13.090Z,58.48
2022-10-13T11:46:13.069Z,62.36
2022-10-13T11:47:13.071Z,56.14
2022-10-13T11:48:13.095Z,59.79
2022-10-13T11:49:13.050Z,59.45
2022-10-13T11:50:13.038Z,58.63
2022-10-13T11:51:15.520Z,58.65
2022-10-13T11:52:13.040Z,57.25
2022-10-13T11:53:13.026Z,57.56
2022-10-13T11:54:13.002Z,56.36
2022-10-13T11:55:12.994Z,55.48
2022-10-13T11:56:12.981Z,58.28
2022-10-13T11:57:12.999Z,57.17
2022-10-13T11:58:12.955Z,56.99
2022-10-13T11:59:12.946Z,64.82
2022-10-13T12:00:12.954Z,58.02
2022-10-13T12:01:12.940Z,58.41
2022-10-13T12:02:12.943Z,58.47
2022-10-13T12:03:13.025Z,57.69
2022-10-13T12:04:12.894Z,55.85
2022-10-13T12:05:12.899Z,56.20
2022-10-13T12:06:12.899Z,56.87
2022-10-13T12:07:12.880Z,57.96
2022-10-13T12:08:12.881Z,58.97
2022-10-13T12:09:12.870Z,59.40
2022-10-13T12:10:12.868Z,59.16
2022-10-13T12:11:12.851Z,60.42
2022-10-13T12:12:12.823Z,58.31
2022-10-13T12:13:12.826Z,60.39
2022-10-13T12:14:12.824Z,59.75
2022-10-13T12:15:12.802Z,64.94
2022-10-13T12:16:12.821Z,60.94
2022-10-13T12:17:17.136Z,61.21
2022-10-13T12:18:13.792Z,60.42
2022-10-13T12:19:12.776Z,59.60
2022-10-13T12:20:12.753Z,60.14
2022-10-13T12:21:12.741Z,57.55
2022-10-13T12:22:12.726Z,60.00
2022-10-13T12:23:12.715Z,61.98
2022-10-13T12:24:12.710Z,59.64
2022-10-13T12:25:12.702Z,60.69
2022-10-13T12:26:12.686Z,61.65
2022-10-13T12:27:12.692Z,61.25
2022-10-13T12:28:12.726Z,61.25
2022-10-13T12:29:12.666Z,59.89
2022-10-13T12:30:12.651Z,61.65
2022-10-13T12:31:12.640Z,60.63
2022-10-13T12:32:12.650Z,62.29
2022-10-13T12:33:12.628Z,62.62
2022-10-13T12:34:12.643Z,60.73
2022-10-13T12:35:12.597Z,60.69
2022-10-13T12:36:12.598Z,65.88
2022-10-13T12:37:12.608Z,59.81
2022-10-13T12:38:12.574Z,61.49
2022-10-13T12:39:12.576Z,58.08
2022-10-13T12:40:12.557Z,60.23
2022-10-13T12:41:12.549Z,59.00
2022-10-13T12:42:12.555Z,59.66
2022-10-13T12:43:12.530Z,61.63
2022-10-13T12:44:12.512Z,61.32
2022-10-13T12:45:12.532Z,69.87
2022-10-13T12:46:12.521Z,63.88
2022-10-13T12:47:12.488Z,62.82
2022-10-13T12:48:12.479Z,61.97
2022-10-13T12:49:12.484Z,63.91
2022-10-13T12:50:12.475Z,64.82
2022-10-13T12:51:12.454Z,60.44
2022-10-13T12:52:12.431Z,58.38
2022-10-13T12:53:12.503Z,60.70
2022-10-13T12:54:12.405Z,64.38